createdAt,value
2018-06-03T00:00:28.912Z,18.10
2018-06-03T00:01:28.853Z,17.80
2018-06-03T00:02:28.729Z,15.40
2018-06-03T00:03:28.640Z,21.70
2018-06-03T00:04:28.553Z,21.80
2018-06-03T00:05:28.458Z,18.40
2018-06-03T00:06:28.395Z,18.10
2018-06-03T00:07:28.272Z,20.50
2018-06-03T00:08:28.184Z,20.00
2018-06-03T00:09:28.914Z,20.40
2018-06-03T00:10:28.001Z,20.90
2018-06-03T00:11:27.948Z,21.30
2018-06-03T00:12:27.821Z,22.80
2018-06-03T00:13:27.732Z,27.70
2018-06-03T00:14:27.641Z,24.70
2018-06-03T00:15:27.551Z,21.70
2018-06-03T00:16:27.490Z,19.50
2018-06-03T00:17:27.368Z,19.00
2018-06-03T00:18:27.277Z,21.90
2018-06-03T00:19:27.186Z,18.20
2018-06-03T00:20:27.095Z,20.70
2018-06-03T00:21:27.036Z,20.90
2018-06-03T00:22:26.912Z,21.50
2018-06-03T00:23:26.824Z,20.90
2018-06-03T00:24:26.729Z,22.50
2018-06-03T00:25:26.643Z,16.70
2018-06-03T00:26:26.551Z,46.80
2018-06-03T00:27:26.491Z,32.80
2018-06-03T00:28:26.367Z,25.80
2018-06-03T00:29:26.276Z,23.30
2018-06-03T00:30:26.187Z,21.10
2018-06-03T00:31:26.100Z,21.40
2018-06-03T00:32:26.038Z,21.00
2018-06-03T00:33:25.916Z,23.70
2018-06-03T00:34:25.825Z,19.40
2018-06-03T00:35:25.734Z,23.10
2018-06-03T00:36:25.645Z,21.50
2018-06-03T00:37:25.584Z,20.40
2018-06-03T00:38:25.463Z,25.20
2018-06-03T00:39:25.371Z,21.50
2018-06-03T00:40:25.314Z,18.50
2018-06-03T00:41:25.190Z,17.30
2018-06-03T00:42:25.128Z,17.60
2018-06-03T00:43:25.006Z,22.40
2018-06-03T00:44:24.921Z,20.30
2018-06-03T00:45:24.832Z,25.00
2018-06-03T00:46:24.829Z,20.60
2018-06-03T00:47:24.679Z,18.30
2018-06-03T00:48:24.558Z,22.60
2018-06-03T00:49:24.467Z,24.00
2018-06-03T00:50:24.379Z,23.80
2018-06-03T00:51:24.285Z,23.90
2018-06-03T00:52:24.240Z,20.30
2018-06-03T00:53:24.198Z,16.00
2018-06-03T00:54:24.011Z,16.20
2018-06-03T00:55:23.922Z,16.80
2018-06-03T00:56:23.830Z,19.50
2018-06-03T00:57:23.772Z,20.30
2018-06-03T00:58:23.650Z,20.90
2018-06-03T00:59:23.559Z,19.30
2018-06-03T01:00:23.562Z,21.00
2018-06-03T01:01:23.380Z,22.60
2018-06-03T01:02:23.314Z,22.40
2018-06-03T01:03:23.197Z,24.20
2018-06-03T01:04:23.110Z,26.50
2018-06-03T01:05:23.016Z,22.70
2018-06-03T01:06:22.926Z,24.60
2018-06-03T01:07:22.959Z,23.30
2018-06-03T01:08:22.756Z,24.90
2018-06-03T01:09:22.659Z,25.30
2018-06-03T01:10:22.563Z,24.10
2018-06-03T01:11:22.471Z,23.10
2018-06-03T01:12:22.411Z,32.50
2018-06-03T01:13:22.293Z,19.30
2018-06-03T01:14:22.293Z,18.90
2018-06-03T01:15:22.109Z,20.00
2018-06-03T01:16:22.018Z,21.10
2018-06-03T01:17:21.926Z,28.90
2018-06-03T01:18:21.869Z,25.30
2018-06-03T01:19:21.746Z,23.80
2018-06-03T01:20:21.657Z,26.80
2018-06-03T01:21:21.655Z,27.30
2018-06-03T01:22:21.476Z,30.70
2018-06-03T01:23:21.428Z,33.30
2018-06-03T01:24:21.291Z,27.70
2018-06-03T01:25:21.202Z,28.20
2018-06-03T01:26:21.108Z,24.60
2018-06-03T01:27:21.017Z,23.80
2018-06-03T01:28:21.052Z,16.00
2018-06-03T01:29:20.837Z,19.10
2018-06-03T01:30:20.745Z,18.40
2018-06-03T01:31:20.654Z,14.20
2018-06-03T01:32:20.563Z,13.40
2018-06-03T01:33:20.502Z,15.30
2018-06-03T01:34:20.384Z,17.50
2018-06-03T01:35:20.383Z,18.40
2018-06-03T01:36:20.204Z,18.40
2018-06-03T01:37:20.112Z,20.50
2018-06-03T01:38:20.050Z,22.10
2018-06-03T01:39:19.927Z,26.60
2018-06-03T01:40:19.838Z,33.50
2018-06-03T01:41:19.753Z,35.60
2018-06-03T01:42:19.745Z,36.60
2018-06-03T01:43:19.593Z,38.40
2018-06-03T01:44:19.474Z,33.70
2018-06-03T01:45:19.382Z,38.00
2018-06-03T01:46:19.292Z,29.50
2018-06-03T01:47:19.201Z,23.50
2018-06-03T01:48:19.142Z,26.80
2018-06-03T01:49:20.933Z,26.30
2018-06-03T01:50:18.927Z,32.70
2018-06-03T01:51:18.836Z,31.20
2018-06-03T01:52:18.748Z,36.30
2018-06-03T01:53:18.683Z,36.40
2018-06-03T01:54:18.560Z,25.90
2018-06-03T01:55:18.560Z,28.20
2018-06-03T01:56:18.379Z,41.70
2018-06-03T01:57:18.289Z,33.50
2018-06-03T01:58:18.230Z,37.40
2018-06-03T01:59:18.105Z,46.30
2018-06-03T02:00:18.016Z,53.40
2018-06-03T02:01:17.924Z,60.70
2018-06-03T02:02:17.834Z,78.30
2018-06-03T02:03:17.743Z,66.20
2018-06-03T02:04:17.699Z,60.00
2018-06-03T02:05:17.563Z,66.80
2018-06-03T02:06:17.470Z,53.30
2018-06-03T02:07:17.378Z,79.90
2018-06-03T02:08:17.289Z,73.70
2018-06-03T02:09:17.228Z,65.40
2018-06-03T02:10:17.106Z,61.40
2018-06-03T02:11:17.012Z,56.70
2018-06-03T02:12:16.928Z,49.70
2018-06-03T02:13:16.832Z,32.30
2018-06-03T02:14:16.792Z,24.10
2018-06-03T02:15:16.649Z,19.80
2018-06-03T02:16:16.565Z,20.10
2018-06-03T02:17:16.468Z,23.50
2018-06-03T02:18:16.376Z,23.60
2018-06-03T02:19:16.313Z,33.00
2018-06-03T02:20:17.940Z,45.90
2018-06-03T02:21:16.103Z,40.00
2018-06-03T02:22:16.011Z,44.60
2018-06-03T02:23:15.919Z,47.10
2018-06-03T02:24:15.859Z,40.00
2018-06-03T02:25:15.737Z,37.50
2018-06-03T02:26:16.442Z,37.70
2018-06-03T02:27:15.554Z,35.00
2018-06-03T02:28:15.462Z,24.60
2018-06-03T02:29:15.402Z,20.00
2018-06-03T02:30:15.282Z,22.00
2018-06-03T02:31:15.189Z,20.80
2018-06-03T02:32:15.101Z,28.80
2018-06-03T02:33:15.013Z,31.10
2018-06-03T02:34:14.954Z,26.90
2018-06-03T02:35:14.823Z,32.30
2018-06-03T02:36:14.733Z,33.60
2018-06-03T02:37:14.645Z,28.40
2018-06-03T02:38:14.548Z,33.30
2018-06-03T02:39:14.488Z,31.10
2018-06-03T02:40:14.369Z,26.90
2018-06-03T02:41:14.291Z,23.80
2018-06-03T02:42:14.187Z,28.30
2018-06-03T02:43:14.954Z,30.20
2018-06-03T02:44:14.037Z,34.30
2018-06-03T02:45:13.914Z,30.90
2018-06-03T02:46:13.819Z,29.50
2018-06-03T02:47:13.731Z,31.90
2018-06-03T02:48:13.643Z,23.20
2018-06-03T02:49:13.580Z,19.70
2018-06-03T02:50:13.454Z,26.90
2018-06-03T02:51:13.370Z,38.00
2018-06-03T02:52:13.291Z,29.90
2018-06-03T02:53:13.183Z,37.70
2018-06-03T02:54:13.120Z,34.00
2018-06-03T02:55:12.996Z,31.10
2018-06-03T02:56:12.919Z,31.60
2018-06-03T02:57:12.815Z,25.80
2018-06-03T02:58:12.724Z,35.50
2018-06-03T02:59:12.677Z,37.90
2018-06-03T03:00:12.573Z,48.30
2018-06-03T03:01:12.446Z,56.60
2018-06-03T03:02:12.357Z,53.50
2018-06-03T03:03:12.265Z,30.30
2018-06-03T03:04:12.178Z,25.20
2018-06-03T03:05:12.113Z,171.20
2018-06-03T03:06:11.987Z,48.90
2018-06-03T03:07:11.904Z,52.30
2018-06-03T03:08:11.808Z,57.60
2018-06-03T03:09:11.717Z,54.60
2018-06-03T03:10:11.654Z,56.50
2018-06-03T03:11:11.531Z,49.40
2018-06-03T03:12:11.534Z,33.50
2018-06-03T03:13:11.352Z,30.20
2018-06-03T03:14:11.996Z,37.80
2018-06-03T03:15:11.205Z,44.50
2018-06-03T03:16:11.077Z,49.30
2018-06-03T03:17:10.985Z,36.10
2018-06-03T03:18:10.893Z,44.20
2018-06-03T03:19:10.800Z,48.60
2018-06-03T03:20:10.741Z,47.80
2018-06-03T03:21:10.620Z,47.00
2018-06-03T03:22:10.530Z,47.00
2018-06-03T03:23:10.439Z,46.00
2018-06-03T03:24:10.345Z,45.50
2018-06-03T03:25:10.281Z,31.50
2018-06-03T03:26:10.161Z,42.50
2018-06-03T03:27:10.072Z,37.90
2018-06-03T03:28:09.977Z,45.10
2018-06-03T03:29:09.888Z,48.50
2018-06-03T03:30:09.829Z,47.00
2018-06-03T03:31:09.704Z,47.00
2018-06-03T03:32:10.458Z,41.30
2018-06-03T03:33:09.528Z,43.70
2018-06-03T03:34:09.958Z,38.80
2018-06-03T03:35:09.369Z,41.10
2018-06-03T03:36:09.254Z,39.30
2018-06-03T03:37:09.161Z,35.10
2018-06-03T03:38:09.064Z,34.40
2018-06-03T03:39:08.979Z,33.70
2018-06-03T03:40:08.919Z,35.60
2018-06-03T03:41:08.795Z,32.50
2018-06-03T03:42:08.701Z,33.70
2018-06-03T03:43:08.612Z,27.60
2018-06-03T03:44:08.523Z,22.10
2018-06-03T03:45:08.461Z,17.90
2018-06-03T03:46:08.340Z,16.30
2018-06-03T03:47:08.247Z,18.10
2018-06-03T03:48:08.287Z,19.70
2018-06-03T03:49:08.067Z,41.30
2018-06-03T03:50:08.007Z,30.50
2018-06-03T03:51:07.885Z,35.50
2018-06-03T03:52:07.793Z,37.70
2018-06-03T03:53:07.705Z,38.20
2018-06-03T03:54:07.609Z,35.20
2018-06-03T03:55:07.620Z,36.00
2018-06-03T03:56:07.461Z,35.40
2018-06-03T03:57:07.340Z,31.50
2018-06-03T03:58:07.247Z,28.80
2018-06-03T03:59:07.156Z,32.40
2018-06-03T04:00:07.067Z,33.30
2018-06-03T04:01:07.005Z,28.80
2018-06-03T04:02:06.974Z,26.10
2018-06-03T04:03:06.804Z,27.20
2018-06-03T04:04:06.702Z,22.20
2018-06-03T04:05:06.613Z,29.40
2018-06-03T04:06:06.552Z,27.40
2018-06-03T04:07:06.450Z,27.80
2018-06-03T04:08:06.335Z,31.30
2018-06-03T04:09:06.350Z,30.10
2018-06-03T04:10:06.155Z,31.20
2018-06-03T04:11:06.093Z,34.70
2018-06-03T04:12:05.975Z,28.00
2018-06-03T04:13:05.882Z,32.20
2018-06-03T04:14:05.792Z,29.40
2018-06-03T04:15:05.700Z,26.80
2018-06-03T04:16:05.731Z,23.90
2018-06-03T04:17:05.523Z,24.20
2018-06-03T04:18:05.432Z,25.80
2018-06-03T04:19:05.337Z,23.40
2018-06-03T04:20:05.250Z,22.90
2018-06-03T04:21:05.191Z,23.30
2018-06-03T04:22:05.068Z,22.20
2018-06-03T04:23:05.070Z,18.90
2018-06-03T04:24:04.884Z,22.00
2018-06-03T04:25:04.795Z,22.60
2018-06-03T04:26:04.738Z,21.10
2018-06-03T04:27:04.617Z,20.10
2018-06-03T04:28:04.526Z,21.10
2018-06-03T04:29:04.437Z,22.00
2018-06-03T04:30:04.438Z,20.50
2018-06-03T04:31:04.285Z,21.70
2018-06-03T04:32:04.166Z,21.50
2018-06-03T04:33:04.071Z,21.90
2018-06-03T04:34:03.980Z,23.30
2018-06-03T04:35:03.891Z,25.90
2018-06-03T04:36:03.833Z,22.50
2018-06-03T04:37:03.802Z,20.90
2018-06-03T04:38:04.473Z,20.80
2018-06-03T04:39:03.538Z,18.70
2018-06-03T04:40:03.446Z,20.70
2018-06-03T04:41:03.381Z,22.70
2018-06-03T04:42:03.261Z,21.50
2018-06-03T04:43:03.172Z,21.20
2018-06-03T04:44:04.032Z,19.90
2018-06-03T04:45:02.993Z,20.50
2018-06-03T04:46:02.907Z,20.30
2018-06-03T04:47:02.847Z,20.30
2018-06-03T04:48:02.723Z,20.60
2018-06-03T04:49:02.637Z,21.20
2018-06-03T04:50:02.545Z,18.70
2018-06-03T04:51:02.545Z,19.00
2018-06-03T04:52:02.396Z,17.90
2018-06-03T04:53:02.275Z,18.00
2018-06-03T04:54:02.187Z,17.90
2018-06-03T04:55:02.136Z,17.50
2018-06-03T04:56:02.010Z,18.00
2018-06-03T04:57:02.043Z,17.70
2018-06-03T04:58:01.831Z,18.40
2018-06-03T04:59:01.742Z,18.20
2018-06-03T05:00:01.653Z,18.00
2018-06-03T05:01:01.564Z,17.20
2018-06-03T05:02:01.504Z,18.00
2018-06-03T05:03:01.388Z,18.50
2018-06-03T05:04:01.299Z,18.00
2018-06-03T05:05:01.209Z,18.00
2018-06-03T05:06:01.121Z,17.90
2018-06-03T05:07:01.061Z,18.80
2018-06-03T05:08:00.943Z,18.30
2018-06-03T05:09:00.860Z,18.40
2018-06-03T05:10:00.767Z,17.60
2018-06-03T05:11:00.677Z,17.70
2018-06-03T05:12:00.636Z,17.90
2018-06-03T05:13:00.498Z,18.10
2018-06-03T05:14:00.412Z,18.20
2018-06-03T05:15:00.323Z,17.70
2018-06-03T05:16:00.236Z,17.30
2018-06-03T05:17:00.178Z,18.00
2018-06-03T05:18:00.057Z,18.70
2018-06-03T05:19:00.485Z,20.50
2018-06-03T05:19:59.878Z,18.30
2018-06-03T05:20:59.797Z,18.80
2018-06-03T05:21:59.739Z,18.90
2018-06-03T05:22:59.619Z,20.00
2018-06-03T05:23:59.528Z,21.70
2018-06-03T05:24:59.440Z,19.80
2018-06-03T05:25:59.353Z,20.40
2018-06-03T05:26:59.293Z,20.60
2018-06-03T05:27:59.175Z,21.20
2018-06-03T05:28:59.091Z,19.40
2018-06-03T05:29:59.001Z,20.10
2018-06-03T05:30:58.915Z,19.90
2018-06-03T05:31:58.862Z,20.30
2018-06-03T05:32:58.755Z,21.70
2018-06-03T05:33:58.651Z,23.60
2018-06-03T05:34:58.562Z,22.90
2018-06-03T05:35:58.475Z,22.20
2018-06-03T05:36:58.418Z,23.60
2018-06-03T05:37:58.301Z,24.70
2018-06-03T05:38:58.216Z,25.30
2018-06-03T05:39:58.134Z,25.10
2018-06-03T05:40:58.038Z,25.30
2018-06-03T05:41:57.982Z,25.00
2018-06-03T05:42:57.864Z,24.90
2018-06-03T05:43:57.777Z,24.10
2018-06-03T05:44:57.688Z,24.60
2018-06-03T05:45:57.600Z,23.60
2018-06-03T05:46:57.518Z,24.00
2018-06-03T05:47:57.455Z,24.10
2018-06-03T05:48:57.339Z,24.30
2018-06-03T05:49:57.250Z,24.40
2018-06-03T05:50:57.164Z,24.80
2018-06-03T05:51:57.091Z,24.80
2018-06-03T05:52:57.022Z,25.60
2018-06-03T05:53:56.901Z,27.50
2018-06-03T05:54:56.815Z,28.00
2018-06-03T05:55:56.730Z,28.30
2018-06-03T05:56:56.644Z,27.70
2018-06-03T05:57:56.585Z,27.20
2018-06-03T05:58:56.469Z,27.50
2018-06-03T05:59:56.383Z,27.70
2018-06-03T06:00:56.296Z,27.40
2018-06-03T06:01:57.546Z,27.00
2018-06-03T06:02:56.150Z,26.80
2018-06-03T06:03:56.034Z,27.40
2018-06-03T06:04:55.945Z,27.70
2018-06-03T06:05:55.859Z,27.60
2018-06-03T06:06:55.862Z,28.10
2018-06-03T06:07:55.719Z,27.80
2018-06-03T06:08:55.603Z,25.60
2018-06-03T06:09:55.510Z,25.70
2018-06-03T06:10:55.426Z,25.90
2018-06-03T06:11:55.340Z,24.50
2018-06-03T06:12:55.282Z,25.20
2018-06-03T06:13:55.165Z,25.70
2018-06-03T06:14:55.079Z,25.00
2018-06-03T06:15:55.009Z,23.80
2018-06-03T06:16:54.913Z,25.60
2018-06-03T06:17:54.850Z,26.30
2018-06-03T06:18:54.734Z,26.80
2018-06-03T06:19:54.645Z,24.30
2018-06-03T06:20:54.558Z,24.60
2018-06-03T06:21:54.476Z,26.20
2018-06-03T06:22:54.415Z,25.70
2018-06-03T06:23:54.301Z,24.90
2018-06-03T06:24:54.216Z,24.60
2018-06-03T06:25:54.126Z,25.70
2018-06-03T06:26:54.052Z,26.20
2018-06-03T06:27:54.082Z,27.00
2018-06-03T06:28:55.510Z,27.10
2018-06-03T06:29:53.776Z,27.10
2018-06-03T06:30:53.693Z,25.40
2018-06-03T06:31:53.608Z,25.30
2018-06-03T06:32:53.549Z,25.80
2018-06-03T06:33:53.438Z,25.20
2018-06-03T06:34:53.439Z,25.30
2018-06-03T06:35:53.261Z,23.00
2018-06-03T06:36:53.174Z,23.60
2018-06-03T06:37:53.089Z,22.30
2018-06-03T06:38:53.034Z,21.20
2018-06-03T06:39:52.916Z,21.50
2018-06-03T06:40:52.834Z,22.30
2018-06-03T06:41:52.838Z,20.80
2018-06-03T06:42:52.660Z,21.00
2018-06-03T06:43:52.604Z,20.80
2018-06-03T06:44:52.489Z,21.70
2018-06-03T06:45:52.401Z,19.60
2018-06-03T06:46:52.324Z,20.40
2018-06-03T06:47:52.237Z,20.90
2018-06-03T06:48:52.261Z,19.70
2018-06-03T06:49:52.064Z,20.50
2018-06-03T06:50:51.984Z,19.00
2018-06-03T06:51:51.902Z,19.30
2018-06-03T06:52:51.817Z,19.10
2018-06-03T06:53:51.762Z,18.80
2018-06-03T06:54:51.644Z,20.20
2018-06-03T06:55:51.656Z,18.80
2018-06-03T06:56:51.479Z,18.30
2018-06-03T06:57:51.400Z,17.50
2018-06-03T06:58:51.343Z,18.00
2018-06-03T06:59:51.238Z,17.60
2018-06-03T07:00:51.146Z,17.00
2018-06-03T07:01:51.064Z,16.90
2018-06-03T07:02:51.072Z,17.80
2018-06-03T07:03:50.934Z,17.00
2018-06-03T07:04:50.820Z,16.00
2018-06-03T07:05:50.738Z,25.60
2018-06-03T07:06:50.654Z,17.40
2018-06-03T07:07:50.574Z,17.20
2018-06-03T07:08:50.527Z,17.50
2018-06-03T07:09:50.512Z,17.00
2018-06-03T07:10:50.332Z,16.70
2018-06-03T07:11:50.250Z,16.40
2018-06-03T07:12:50.174Z,17.30
2018-06-03T07:13:50.123Z,16.40
2018-06-03T07:14:50.011Z,15.90
2018-06-03T07:15:49.930Z,15.70
2018-06-03T07:16:49.954Z,15.80
2018-06-03T07:17:49.770Z,14.70
2018-06-03T07:18:49.722Z,15.40
2018-06-03T07:19:49.609Z,15.70
2018-06-03T07:20:49.527Z,15.90
2018-06-03T07:21:49.447Z,16.60
2018-06-03T07:22:49.379Z,15.50
2018-06-03T07:23:49.426Z,16.30
2018-06-03T07:24:49.208Z,15.50
2018-06-03T07:25:49.132Z,15.50
2018-06-03T07:26:49.048Z,15.10
2018-06-03T07:27:48.972Z,14.10
2018-06-03T07:28:48.922Z,13.40
2018-06-03T07:29:48.812Z,13.90
2018-06-03T07:30:48.823Z,13.90
2018-06-03T07:31:48.654Z,14.00
2018-06-03T07:32:48.576Z,14.70
2018-06-03T07:33:48.492Z,14.70
2018-06-03T07:34:49.038Z,13.40
2018-06-03T07:35:48.338Z,14.60
2018-06-03T07:36:48.254Z,14.60
2018-06-03T07:37:48.273Z,13.60
2018-06-03T07:38:48.100Z,14.10
2018-06-03T07:39:48.051Z,13.30
2018-06-03T07:40:47.941Z,13.90
2018-06-03T07:41:47.860Z,13.90
2018-06-03T07:42:47.782Z,13.70
2018-06-03T07:43:47.705Z,14.00
2018-06-03T07:44:47.748Z,13.80
2018-06-03T07:45:47.550Z,13.60
2018-06-03T07:46:47.481Z,13.20
2018-06-03T07:47:47.387Z,14.20
2018-06-03T07:48:47.310Z,12.70
2018-06-03T07:49:47.260Z,13.40
2018-06-03T07:50:47.151Z,12.90
2018-06-03T07:51:47.609Z,12.70
2018-06-03T07:52:46.997Z,13.00
2018-06-03T07:53:46.915Z,13.40
2018-06-03T07:54:46.875Z,12.70
2018-06-03T07:55:46.761Z,12.60
2018-06-03T07:56:46.679Z,12.00
2018-06-03T07:57:46.690Z,11.10
2018-06-03T07:58:46.521Z,11.50
2018-06-03T07:59:46.473Z,12.10
2018-06-03T08:00:46.365Z,11.20
2018-06-03T08:01:46.284Z,12.20
2018-06-03T08:02:46.207Z,12.00
2018-06-03T08:03:46.130Z,13.50
2018-06-03T08:04:46.082Z,13.00
2018-06-03T08:05:45.969Z,13.30
2018-06-03T08:06:45.896Z,12.80
2018-06-03T08:07:45.823Z,12.40
2018-06-03T08:08:45.738Z,11.90
2018-06-03T08:09:45.689Z,11.50
2018-06-03T08:10:45.601Z,11.70
2018-06-03T08:11:45.502Z,10.60
2018-06-03T08:12:45.423Z,10.60
2018-06-03T08:13:45.376Z,12.10
2018-06-03T08:14:45.302Z,11.20
2018-06-03T08:15:45.191Z,11.60
2018-06-03T08:16:45.113Z,11.80
2018-06-03T08:17:45.033Z,11.80
2018-06-03T08:18:45.555Z,11.20
2018-06-03T08:19:44.908Z,12.40
2018-06-03T08:20:44.800Z,11.00
2018-06-03T08:21:44.721Z,11.40
2018-06-03T08:22:44.681Z,11.40
2018-06-03T08:23:44.565Z,11.60
2018-06-03T08:24:44.524Z,11.40
2018-06-03T08:25:44.408Z,11.50
2018-06-03T08:26:44.332Z,11.50
2018-06-03T08:27:44.259Z,10.40
2018-06-03T08:28:44.175Z,10.50
2018-06-03T08:29:44.152Z,10.60
2018-06-03T08:30:44.021Z,11.10
2018-06-03T08:31:43.940Z,22.80
2018-06-03T08:32:43.863Z,10.20
2018-06-03T08:33:43.786Z,10.70
2018-06-03T08:34:43.710Z,10.20
2018-06-03T08:35:43.659Z,9.90
2018-06-03T08:36:43.551Z,9.20
2018-06-03T08:37:43.473Z,11.30
2018-06-03T08:38:43.395Z,11.60
2018-06-03T08:39:43.318Z,11.40
2018-06-03T08:40:43.275Z,11.30
2018-06-03T08:41:43.162Z,10.50
2018-06-03T08:42:43.082Z,9.40
2018-06-03T08:43:43.008Z,9.30
2018-06-03T08:44:42.948Z,8.20
2018-06-03T08:45:42.882Z,8.00
2018-06-03T08:46:42.774Z,7.90
2018-06-03T08:47:42.708Z,7.70
2018-06-03T08:48:42.624Z,8.10
2018-06-03T08:49:42.541Z,8.00
2018-06-03T08:50:42.492Z,8.70
2018-06-03T08:51:43.063Z,9.70
2018-06-03T08:52:42.403Z,10.60
2018-06-03T08:53:42.231Z,10.20
2018-06-03T08:54:42.198Z,8.70
2018-06-03T08:55:42.109Z,8.30
2018-06-03T08:56:41.998Z,8.20
2018-06-03T08:57:41.935Z,8.40
2018-06-03T08:58:41.843Z,8.50
2018-06-03T08:59:42.623Z,8.50
2018-06-03T09:00:41.719Z,8.20
2018-06-03T09:01:41.613Z,8.50
2018-06-03T09:02:41.534Z,9.20
2018-06-03T09:03:41.454Z,9.40
2018-06-03T09:04:41.376Z,9.70
2018-06-03T09:05:42.123Z,9.50
2018-06-03T09:06:41.315Z,8.80
2018-06-03T09:07:41.172Z,9.10
2018-06-03T09:08:41.167Z,8.40
2018-06-03T09:09:40.989Z,8.90
2018-06-03T09:10:40.945Z,10.00
2018-06-03T09:11:40.835Z,10.00
2018-06-03T09:12:40.756Z,10.40
2018-06-03T09:13:40.771Z,10.10
2018-06-03T09:14:40.601Z,10.00
2018-06-03T09:15:40.557Z,10.50
2018-06-03T09:16:40.447Z,10.50
2018-06-03T09:17:40.367Z,10.00
2018-06-03T09:18:40.291Z,9.80
2018-06-03T09:19:40.213Z,10.50
2018-06-03T09:20:40.163Z,9.20
2018-06-03T09:21:40.057Z,10.90
2018-06-03T09:22:39.978Z,10.00
2018-06-03T09:23:39.902Z,9.80
2018-06-03T09:24:39.827Z,9.30
2018-06-03T09:25:39.775Z,10.10
2018-06-03T09:26:39.669Z,10.70
2018-06-03T09:27:39.589Z,10.70
2018-06-03T09:28:39.513Z,10.20
2018-06-03T09:29:39.432Z,10.20
2018-06-03T09:30:39.358Z,10.70
2018-06-03T09:31:39.305Z,11.60
2018-06-03T09:32:40.080Z,11.40
2018-06-03T09:33:39.120Z,11.30
2018-06-03T09:34:39.104Z,11.20
2018-06-03T09:35:38.964Z,10.50
2018-06-03T09:36:38.911Z,9.90
2018-06-03T09:37:38.807Z,10.20
2018-06-03T09:38:38.726Z,10.00
2018-06-03T09:39:38.649Z,9.70
2018-06-03T09:40:38.571Z,8.90
2018-06-03T09:41:38.516Z,9.60
2018-06-03T09:42:38.410Z,9.90
2018-06-03T09:43:38.332Z,9.70
2018-06-03T09:44:38.266Z,9.40
2018-06-03T09:45:38.171Z,9.80
2018-06-03T09:46:38.123Z,9.80
2018-06-03T09:47:38.017Z,9.40
2018-06-03T09:48:37.940Z,8.40
2018-06-03T09:49:37.859Z,8.00
2018-06-03T09:50:38.059Z,9.00
2018-06-03T09:51:37.731Z,8.00
2018-06-03T09:52:37.624Z,8.30
2018-06-03T09:53:37.544Z,8.00
2018-06-03T09:54:37.470Z,8.00
2018-06-03T09:55:37.513Z,7.70
2018-06-03T09:56:37.343Z,7.10
2018-06-03T09:57:37.234Z,6.90
2018-06-03T09:58:37.155Z,7.40
2018-06-03T09:59:37.078Z,7.50
2018-06-03T10:00:37.000Z,7.40
2018-06-03T10:01:36.955Z,7.00
2018-06-03T10:02:36.930Z,8.20
2018-06-03T10:03:36.769Z,8.30
2018-06-03T10:04:36.690Z,7.70
2018-06-03T10:05:36.614Z,7.60
2018-06-03T10:06:36.562Z,8.10
2018-06-03T10:07:36.456Z,7.70
2018-06-03T10:08:36.385Z,7.40
2018-06-03T10:09:36.405Z,7.20
2018-06-03T10:10:36.226Z,6.50
2018-06-03T10:11:36.177Z,7.40
2018-06-03T10:12:36.068Z,6.90
2018-06-03T10:13:35.990Z,6.30
2018-06-03T10:14:35.917Z,6.60
2018-06-03T10:15:35.837Z,6.20
2018-06-03T10:16:35.883Z,9.60
2018-06-03T10:17:35.684Z,6.40
2018-06-03T10:18:35.604Z,6.10
2018-06-03T10:19:35.529Z,6.10
2018-06-03T10:20:35.451Z,5.70
2018-06-03T10:21:36.159Z,5.50
2018-06-03T10:22:35.330Z,5.00
2018-06-03T10:23:35.314Z,5.10
2018-06-03T10:24:35.141Z,4.80
2018-06-03T10:25:35.067Z,4.50
2018-06-03T10:26:34.993Z,4.40
2018-06-03T10:27:34.944Z,5.20
2018-06-03T10:28:34.838Z,5.20
2018-06-03T10:29:34.758Z,5.10
2018-06-03T10:30:34.773Z,5.30
2018-06-03T10:31:34.611Z,5.50
2018-06-03T10:32:34.560Z,4.80
2018-06-03T10:33:34.474Z,4.90
2018-06-03T10:34:34.375Z,5.10
2018-06-03T10:35:34.307Z,4.40
2018-06-03T10:36:34.227Z,4.90
2018-06-03T10:37:34.270Z,5.40
2018-06-03T10:38:34.071Z,4.80
2018-06-03T10:39:33.996Z,5.40
2018-06-03T10:40:33.920Z,5.20
2018-06-03T10:41:33.843Z,3.80
2018-06-03T10:42:33.801Z,3.60
2018-06-03T10:43:33.782Z,3.70
2018-06-03T10:44:33.618Z,3.10
2018-06-03T10:45:33.538Z,3.90
2018-06-03T10:46:34.169Z,3.50
2018-06-03T10:47:33.415Z,3.60
2018-06-03T10:48:33.311Z,3.90
2018-06-03T10:49:33.234Z,4.50
2018-06-03T10:50:33.157Z,4.30
2018-06-03T10:51:33.082Z,4.80
2018-06-03T10:52:33.035Z,5.20
2018-06-03T10:53:32.931Z,5.20
2018-06-03T10:54:32.885Z,5.10
2018-06-03T10:55:32.781Z,5.20
2018-06-03T10:56:32.704Z,4.90
2018-06-03T10:57:32.661Z,5.40
2018-06-03T10:58:32.556Z,5.30
2018-06-03T10:59:32.476Z,4.90
2018-06-03T11:00:32.402Z,4.70
2018-06-03T11:01:32.325Z,4.30
2018-06-03T11:02:32.277Z,4.30
2018-06-03T11:03:32.175Z,4.30
2018-06-03T11:04:32.098Z,4.50
2018-06-03T11:05:32.038Z,4.70
2018-06-03T11:06:31.944Z,5.20
2018-06-03T11:07:31.901Z,5.00
2018-06-03T11:08:31.797Z,4.50
2018-06-03T11:09:31.718Z,4.90
2018-06-03T11:10:31.643Z,5.10
2018-06-03T11:11:31.564Z,4.80
2018-06-03T11:12:31.521Z,4.60
2018-06-03T11:13:31.413Z,4.60
2018-06-03T11:14:31.335Z,4.50
2018-06-03T11:15:31.265Z,6.70
2018-06-03T11:16:31.187Z,4.50
2018-06-03T11:17:31.107Z,4.30
2018-06-03T11:18:31.061Z,4.30
2018-06-03T11:19:30.954Z,4.10
2018-06-03T11:20:30.880Z,4.10
2018-06-03T11:21:30.800Z,4.20
2018-06-03T11:22:30.729Z,3.80
2018-06-03T11:23:30.690Z,4.00
2018-06-03T11:24:30.573Z,4.30
2018-06-03T11:25:30.498Z,4.60
2018-06-03T11:26:30.423Z,4.40
2018-06-03T11:27:30.395Z,4.50
2018-06-03T11:28:30.301Z,4.50
2018-06-03T11:29:30.195Z,4.50
2018-06-03T11:30:30.121Z,4.60
2018-06-03T11:31:30.044Z,5.30
2018-06-03T11:32:29.967Z,5.60
2018-06-03T11:33:29.923Z,5.60
2018-06-03T11:34:29.816Z,5.50
2018-06-03T11:35:29.741Z,5.60
2018-06-03T11:36:29.663Z,5.70
2018-06-03T11:37:29.588Z,5.50
2018-06-03T11:38:29.542Z,5.40
2018-06-03T11:39:29.440Z,5.20
2018-06-03T11:40:29.362Z,5.10
2018-06-03T11:41:29.288Z,5.40
2018-06-03T11:42:29.212Z,5.40
2018-06-03T11:43:29.165Z,5.20
2018-06-03T11:44:29.064Z,5.30
2018-06-03T11:45:30.635Z,5.10
2018-06-03T11:46:28.909Z,4.80
2018-06-03T11:47:28.833Z,4.70
2018-06-03T11:48:28.789Z,4.90
2018-06-03T11:49:29.636Z,5.10
2018-06-03T11:50:28.605Z,4.80
2018-06-03T11:51:28.577Z,4.70
2018-06-03T11:52:28.455Z,4.60
2018-06-03T11:53:28.409Z,4.40
2018-06-03T11:54:28.302Z,4.60
2018-06-03T11:55:28.227Z,4.50
2018-06-03T11:56:28.147Z,4.50
2018-06-03T11:57:28.072Z,4.20
2018-06-03T11:58:28.026Z,4.70
2018-06-03T11:59:28.028Z,4.20
2018-06-03T12:00:27.846Z,4.40
2018-06-03T12:01:27.766Z,4.60
2018-06-03T12:02:27.692Z,4.80
2018-06-03T12:03:27.662Z,4.80
2018-06-03T12:04:27.542Z,5.10
2018-06-03T12:05:27.464Z,4.90
2018-06-03T12:06:27.482Z,4.90
2018-06-03T12:07:27.315Z,4.90
2018-06-03T12:08:27.238Z,4.50
2018-06-03T12:09:27.190Z,4.50
2018-06-03T12:10:27.697Z,4.70
2018-06-03T12:11:27.008Z,4.50
2018-06-03T12:12:27.040Z,4.50
2018-06-03T12:13:26.856Z,4.60
2018-06-03T12:14:26.811Z,4.80
2018-06-03T12:15:26.720Z,4.60
2018-06-03T12:16:26.635Z,4.60
2018-06-03T12:17:26.555Z,4.40
2018-06-03T12:18:26.486Z,4.60
2018-06-03T12:19:26.434Z,4.70
2018-06-03T12:20:26.332Z,4.40
2018-06-03T12:21:26.255Z,4.70
2018-06-03T12:22:26.177Z,4.30
2018-06-03T12:23:26.104Z,4.30
2018-06-03T12:24:26.074Z,4.50
2018-06-03T12:25:25.962Z,4.40
2018-06-03T12:26:25.878Z,4.90
2018-06-03T12:27:25.803Z,4.40
2018-06-03T12:28:25.747Z,4.70
2018-06-03T12:29:25.680Z,4.80
2018-06-03T12:30:25.580Z,4.40
2018-06-03T12:31:25.502Z,4.30
2018-06-03T12:32:25.424Z,4.30
2018-06-03T12:33:25.441Z,4.40
2018-06-03T12:34:25.305Z,4.30
2018-06-03T12:35:25.209Z,4.50
2018-06-03T12:36:25.127Z,4.90
2018-06-03T12:37:25.053Z,4.30
2018-06-03T12:38:25.018Z,4.20
2018-06-03T12:39:24.930Z,4.30
2018-06-03T12:40:24.912Z,4.50
2018-06-03T12:41:25.711Z,4.40
2018-06-03T12:42:24.721Z,4.70
2018-06-03T12:43:24.599Z,4.40
2018-06-03T12:44:24.555Z,4.50
2018-06-03T12:45:24.447Z,4.40
2018-06-03T12:46:24.463Z,4.50
2018-06-03T12:47:25.160Z,4.60
2018-06-03T12:48:24.223Z,4.40
2018-06-03T12:49:24.150Z,4.40
2018-06-03T12:50:24.101Z,4.80
2018-06-03T12:51:23.995Z,4.80
2018-06-03T12:52:23.963Z,5.10
2018-06-03T12:53:23.843Z,4.50
2018-06-03T12:54:23.770Z,4.40
2018-06-03T12:55:23.732Z,4.70
2018-06-03T12:56:23.623Z,5.10
2018-06-03T12:57:23.545Z,5.40
2018-06-03T12:58:23.469Z,4.50
2018-06-03T12:59:23.394Z,4.40